Time;durP1;ratioP1;P1;durP2;ratioP2;P2;SDS_P1;SDS_P2;PMS_P1;PMS_P2;Temp;Humidity;BMP_temperature;BMP_pressure;BME280_temperature;BME280_humidity;BME280_pressure;Samples;Min_cycle;Max_cycle;Signal;HPM_P1;HPM_P2
2021/08/02 00:01:30;;;;;;;2.97;1.20;;;14.80;99.90;;;;;;5045740;28;20209;-79
2021/08/02 00:04:03;;;;;;;2.63;1.23;;;14.80;99.90;;;;;;5049037;28;20227;-78
2021/08/02 00:06:39;;;;;;;2.30;1.30;;;14.90;99.90;;;;;;5066557;28;20308;-78
2021/08/02 00:09:09;;;;;;;5.80;1.60;;;14.80;99.90;;;;;;5066169;28;20189;-78
2021/08/02 00:11:40;;;;;;;2.92;1.10;;;14.80;99.90;;;;;;5054488;28;20210;-78
2021/08/02 00:14:09;;;;;;;4.05;1.20;;;14.80;99.90;;;;;;5046560;28;20213;-80
2021/08/02 00:16:38;;;;;;;3.65;1.15;;;14.70;99.90;;;;;;5045261;28;20209;-80
2021/08/02 00:19:07;;;;;;;3.92;1.20;;;14.80;99.90;;;;;;5045589;28;20230;-80
2021/08/02 00:21:34;;;;;;;5.22;1.15;;;14.70;99.90;;;;;;5045971;28;20205;-78
2021/08/02 00:24:01;;;;;;;3.37;1.10;;;14.70;99.90;;;;;;5045331;28;20217;-79
2021/08/02 00:26:30;;;;;;;3.50;1.37;;;14.70;99.90;;;;;;5046244;28;20246;-79
2021/08/02 00:28:59;;;;;;;5.77;2.13;;;14.60;99.90;;;;;;5045849;28;20205;-80
2021/08/02 00:31:26;;;;;;;3.17;1.37;;;14.60;99.90;;;;;;5046326;28;20201;-78
2021/08/02 00:33:52;;;;;;;2.25;1.17;;;14.60;99.90;;;;;;5047855;28;20216;-78
2021/08/02 00:36:25;;;;;;;1.95;1.10;;;14.60;99.90;;;;;;5066638;28;20197;-80
2021/08/02 00:39:02;;;;;;;2.65;1.33;;;14.50;99.90;;;;;;5065860;28;20295;-78
2021/08/02 00:42:14;;;;;;;3.38;1.25;;;14.50;99.90;;;;;;5066202;28;20292;-77
2021/08/02 00:45:06;;;;;;;4.27;1.20;;;14.40;99.90;;;;;;5051169;28;20240;-77
2021/08/02 00:47:36;;;;;;;2.27;1.00;;;14.30;99.90;;;;;;5051846;28;20241;-77
2021/08/02 00:50:06;;;;;;;8.93;1.50;;;14.30;99.90;;;;;;5059016;28;20210;-77
2021/08/02 00:52:34;;;;;;;2.40;0.97;;;14.30;99.90;;;;;;5050652;28;20305;-77
2021/08/02 00:55:04;;;;;;;2.47;1.37;;;14.20;99.90;;;;;;5049949;28;20209;-78
2021/08/02 00:57:36;;;;;;;6.07;1.77;;;14.20;99.90;;;;;;5048656;28;20206;-79
2021/08/02 01:00:09;;;;;;;2.33;1.10;;;14.20;99.90;;;;;;5046694;28;20552;-77
2021/08/02 01:02:40;;;;;;;5.43;1.20;;;14.20;99.90;;;;;;5046290;28;20781;-78
2021/08/02 01:05:09;;;;;;;3.80;1.30;;;14.20;99.90;;;;;;5045965;28;20411;-77
2021/08/02 01:07:45;;;;;;;2.03;1.00;;;14.20;99.90;;;;;;5046287;28;20263;-80
2021/08/02 01:10:14;;;;;;;6.27;1.20;;;14.10;99.90;;;;;;5046020;28;20547;-79
2021/08/02 01:12:46;;;;;;;3.23;1.10;;;14.10;99.90;;;;;;5045879;28;20669;-79
2021/08/02 01:15:15;;;;;;;5.00;1.35;;;14.10;99.90;;;;;;5045449;28;20347;-79
2021/08/02 01:17:43;;;;;;;3.97;1.20;;;14.20;99.90;;;;;;5054608;28;20213;-79
2021/08/02 01:20:12;;;;;;;5.20;1.03;;;14.20;99.90;;;;;;5048534;28;20221;-77
2021/08/02 01:22:41;;;;;;;4.95;1.48;;;14.10;99.90;;;;;;5045713;28;20198;-77
2021/08/02 01:25:57;;;;;;;4.43;1.35;;;14.10;99.90;;;;;;5044110;28;20213;-78
2021/08/02 01:29:01;;;;;;;4.67;1.10;;;14.20;99.90;;;;;;5045020;28;20218;-78
2021/08/02 01:31:28;;;;;;;5.20;1.53;;;14.20;99.90;;;;;;5045720;28;20202;-78
2021/08/02 01:33:55;;;;;;;2.43;1.30;;;14.20;99.90;;;;;;5045337;28;20201;-79
2021/08/02 01:36:21;;;;;;;8.00;1.60;;;14.20;99.90;;;;;;5045972;28;20198;-77
2021/08/02 01:38:50;;;;;;;1.80;1.23;;;14.20;99.90;;;;;;5045609;28;20246;-79
2021/08/02 01:41:17;;;;;;;2.78;1.00;;;14.20;99.90;;;;;;5058998;28;20232;-79
2021/08/02 01:43:44;;;;;;;2.53;1.20;;;14.20;99.90;;;;;;5065369;28;20201;-79
2021/08/02 01:46:20;;;;;;;2.70;1.40;;;14.20;99.90;;;;;;5065354;28;20224;-77
2021/08/02 01:48:55;;;;;;;3.17;1.20;;;14.20;99.90;;;;;;5060203;28;20210;-79
2021/08/02 01:51:25;;;;;;;4.07;1.30;;;14.10;99.90;;;;;;5045498;28;20651;-78
2021/08/02 01:53:59;;;;;;;4.22;1.38;;;14.10;99.90;;;;;;5045188;28;20209;-77
2021/08/02 01:56:31;;;;;;;4.40;1.43;;;14.20;99.90;;;;;;5063762;28;20215;-78
2021/08/02 01:59:04;;;;;;;4.40;1.30;;;14.20;99.90;;;;;;5064736;28;20283;-77
2021/08/02 02:01:33;;;;;;;2.67;1.40;;;14.20;99.90;;;;;;5064601;28;20197;-79
2021/08/02 02:04:03;;;;;;;5.63;1.15;;;14.10;99.90;;;;;;5065055;28;20232;-76
2021/08/02 02:06:33;;;;;;;3.03;1.27;;;14.10;99.90;;;;;;5045215;28;20216;-78
2021/08/02 02:09:04;;;;;;;4.43;1.40;;;14.10;99.90;;;;;;5058645;28;20265;-78
2021/08/02 02:11:33;;;;;;;1.83;1.10;;;14.10;99.90;;;;;;5053892;28;20517;-79
2021/08/02 02:14:02;;;;;;;5.90;1.38;;;14.10;99.90;;;;;;5046078;28;20206;-76
2021/08/02 02:16:31;;;;;;;4.40;1.60;;;14.10;99.90;;;;;;5044448;28;20902;-78
2021/08/02 02:19:04;;;;;;;2.53;1.20;;;14.10;99.90;;;;;;5044767;28;20320;-79
2021/08/02 02:21:33;;;;;;;3.17;1.23;;;14.10;99.90;;;;;;5043801;28;20202;-77
2021/08/02 02:24:02;;;;;;;7.17;1.80;;;14.10;99.90;;;;;;5044411;28;20224;-78
2021/08/02 02:26:32;;;;;;;4.57;1.50;;;14.10;99.90;;;;;;5045201;28;20206;-77
2021/08/02 02:29:01;;;;;;;2.60;1.30;;;14.20;99.90;;;;;;5044441;28;20197;-77
2021/08/02 02:31:29;;;;;;;3.20;1.53;;;14.10;99.90;;;;;;5044981;28;20214;-77
2021/08/02 02:33:58;;;;;;;3.07;1.10;;;14.10;99.90;;;;;;5045175;28;20213;-78
2021/08/02 02:36:25;;;;;;;5.17;1.50;;;14.10;99.90;;;;;;5044103;28;20301;-78
2021/08/02 02:38:54;;;;;;;1.90;1.17;;;14.10;99.90;;;;;;5044652;28;20233;-79
2021/08/02 02:41:24;;;;;;;3.70;1.43;;;14.00;99.90;;;;;;5044966;28;20194;-79
2021/08/02 02:43:51;;;;;;;2.87;1.00;;;14.10;99.90;;;;;;5044512;28;20214;-77
2021/08/02 02:46:20;;;;;;;4.00;1.20;;;14.10;99.90;;;;;;5045151;28;20213;-78
2021/08/02 02:48:48;;;;;;;3.63;1.17;;;14.10;99.90;;;;;;5044911;28;20602;-77
2021/08/02 02:51:16;;;;;;;4.23;1.47;;;14.10;99.90;;;;;;5043552;28;20206;-77
2021/08/02 02:53:44;;;;;;;3.27;1.20;;;14.00;99.90;;;;;;5044898;28;20500;-77
2021/08/02 02:56:13;;;;;;;4.20;1.23;;;14.00;99.90;;;;;;5060489;28;20204;-77
2021/08/02 02:58:42;;;;;;;2.30;1.40;;;14.00;99.90;;;;;;5060098;28;20218;-77
2021/08/02 03:01:10;;;;;;;2.43;1.33;;;14.00;99.90;;;;;;5044729;28;20194;-78
2021/08/02 03:03:41;;;;;;;4.20;1.10;;;14.00;99.90;;;;;;5043532;28;20233;-77
2021/08/02 03:06:08;;;;;;;3.43;1.10;;;14.00;99.90;;;;;;5044050;28;20205;-78
2021/08/02 03:08:37;;;;;;;2.33;1.30;;;14.10;99.90;;;;;;5044493;28;20206;-79
2021/08/02 03:11:06;;;;;;;6.57;1.40;;;14.10;99.90;;;;;;5044196;28;20209;-76
2021/08/02 03:13:33;;;;;;;3.73;1.20;;;14.10;99.90;;;;;;5044701;28;20194;-79
2021/08/02 03:16:01;;;;;;;3.50;1.37;;;14.10;99.90;;;;;;5044634;28;20221;-77
2021/08/02 03:18:28;;;;;;;2.70;1.10;;;14.10;99.90;;;;;;5044221;28;20209;-77
2021/08/02 03:20:55;;;;;;;3.90;1.60;;;14.10;99.90;;;;;;5045217;28;20214;-80
2021/08/02 03:23:25;;;;;;;3.37;1.10;;;14.20;99.90;;;;;;5045029;28;20212;-76
2021/08/02 03:25:57;;;;;;;3.37;1.30;;;14.20;99.90;;;;;;5044946;28;20684;-76
2021/08/02 03:28:31;;;;;;;3.43;1.57;;;14.30;99.90;;;;;;5047139;28;20285;-79
2021/08/02 03:31:04;;;;;;;8.37;1.60;;;14.30;99.90;;;;;;5049762;28;20214;-77
2021/08/02 03:33:35;;;;;;;4.27;1.30;;;14.40;99.90;;;;;;5068295;28;20204;-79
2021/08/02 03:36:05;;;;;;;6.50;1.30;;;14.40;99.90;;;;;;5063554;28;20205;-77
2021/08/02 03:38:33;;;;;;;5.97;1.50;;;14.40;99.90;;;;;;5056424;28;20226;-77
2021/08/02 03:41:01;;;;;;;4.87;1.70;;;14.50;99.90;;;;;;5066552;28;20206;-76
2021/08/02 03:43:28;;;;;;;5.13;1.30;;;14.50;99.90;;;;;;5066142;28;20222;-77
2021/08/02 03:45:57;;;;;;;3.95;1.13;;;14.50;99.90;;;;;;5061501;28;20518;-79
2021/08/02 03:48:25;;;;;;;3.20;1.30;;;14.50;99.90;;;;;;5053493;28;20198;-78
2021/08/02 03:50:53;;;;;;;3.38;1.33;;;14.50;99.90;;;;;;5048087;28;20213;-79
2021/08/02 03:53:19;;;;;;;3.13;1.15;;;14.70;99.90;;;;;;5046689;28;20193;-76
2021/08/02 03:55:46;;;;;;;3.23;1.53;;;14.70;99.90;;;;;;5048067;28;20209;-78
2021/08/02 03:58:14;;;;;;;4.93;1.47;;;14.70;99.90;;;;;;5047273;28;20926;-76
2021/08/02 04:00:41;;;;;;;3.58;1.50;;;14.70;99.90;;;;;;5029972;28;20232;-77
2021/08/02 04:03:08;;;;;;;5.60;1.85;;;14.60;99.90;;;;;;5067312;28;20236;-76
2021/08/02 04:05:37;;;;;;;4.50;1.45;;;14.60;99.90;;;;;;5061208;28;20609;-78
2021/08/02 04:08:04;;;;;;;2.80;1.38;;;14.60;99.90;;;;;;5046906;28;20198;-79
2021/08/02 04:10:31;;;;;;;4.03;1.52;;;14.50;99.90;;;;;;5047453;28;20198;-77
2021/08/02 04:12:58;;;;;;;2.75;1.50;;;14.50;99.90;;;;;;5047668;28;20206;-78
2021/08/02 04:15:25;;;;;;;2.90;1.40;;;14.50;99.90;;;;;;5046326;28;20281;-79
2021/08/02 04:17:51;;;;;;;3.53;1.30;;;14.40;99.90;;;;;;5046310;28;20225;-81
2021/08/02 04:20:19;;;;;;;3.43;1.20;;;14.40;99.90;;;;;;5046719;28;20249;-79
2021/08/02 04:22:49;;;;;;;2.90;0.98;;;14.40;99.90;;;;;;5046120;28;20202;-79
2021/08/02 04:25:15;;;;;;;4.33;1.50;;;14.30;99.90;;;;;;5045139;28;20218;-80
2021/08/02 04:27:42;;;;;;;2.72;1.20;;;14.30;99.90;;;;;;5046999;28;20205;-80
2021/08/02 04:30:10;;;;;;;2.45;1.50;;;14.30;99.90;;;;;;5045676;28;20630;-81
2021/08/02 04:32:42;;;;;;;5.38;1.73;;;14.30;99.90;;;;;;5046414;28;20202;-80
2021/08/02 04:35:09;;;;;;;4.90;1.60;;;14.30;99.90;;;;;;5045316;28;20210;-80
2021/08/02 04:37:36;;;;;;;6.40;1.80;;;14.40;99.90;;;;;;5045575;28;20249;-79
2021/08/02 04:40:06;;;;;;;9.50;1.77;;;14.40;99.90;;;;;;5046301;28;20652;-79
2021/08/02 04:42:34;;;;;;;4.53;1.63;;;14.50;99.90;;;;;;5045618;28;20202;-80
2021/08/02 04:45:01;;;;;;;6.67;1.70;;;14.60;99.90;;;;;;5046541;28;20198;-77
2021/08/02 04:47:28;;;;;;;3.87;1.73;;;14.60;99.90;;;;;;5047350;28;20209;-80
2021/08/02 04:49:55;;;;;;;5.23;1.50;;;14.60;99.90;;;;;;5046383;28;20205;-78
2021/08/02 04:52:21;;;;;;;5.57;1.63;;;14.70;99.90;;;;;;5046849;28;20209;-78
2021/08/02 04:54:48;;;;;;;6.50;1.80;;;14.70;99.90;;;;;;5046506;28;20206;-77
2021/08/02 04:57:17;;;;;;;6.38;1.75;;;14.70;99.90;;;;;;5046117;28;20222;-79
2021/08/02 04:59:43;;;;;;;4.38;1.60;;;14.70;99.90;;;;;;5046777;28;20241;-79
2021/08/02 05:02:10;;;;;;;5.07;1.70;;;14.70;99.90;;;;;;5046335;28;20206;-79
2021/08/02 05:04:37;;;;;;;2.75;1.45;;;14.70;99.90;;;;;;5046464;28;20210;-78
2021/08/02 05:07:04;;;;;;;2.45;1.45;;;14.70;99.90;;;;;;5046014;28;20205;-78
2021/08/02 05:09:31;;;;;;;4.60;1.55;;;14.70;99.90;;;;;;5046294;28;20648;-79
2021/08/02 05:11:58;;;;;;;4.17;1.40;;;14.70;99.90;;;;;;5045390;28;20516;-79
2021/08/02 05:14:26;;;;;;;2.97;1.60;;;14.70;99.90;;;;;;5046267;28;20667;-77
2021/08/02 05:16:53;;;;;;;4.50;1.50;;;14.70;99.90;;;;;;5046406;28;20198;-78
2021/08/02 05:19:19;;;;;;;3.45;1.40;;;14.70;99.90;;;;;;5045830;28;20206;-78
2021/08/02 05:21:46;;;;;;;4.30;1.63;;;14.80;99.90;;;;;;5046706;28;20206;-79
2021/08/02 05:24:13;;;;;;;2.80;1.50;;;14.80;99.90;;;;;;5045587;28;20209;-78
2021/08/02 05:26:40;;;;;;;2.75;1.80;;;14.80;99.90;;;;;;5045938;28;20205;-78
2021/08/02 05:29:07;;;;;;;5.07;1.60;;;14.90;99.90;;;;;;5046027;28;20700;-78
2021/08/02 05:31:35;;;;;;;5.00;1.63;;;14.90;99.90;;;;;;5045429;28;20255;-78
2021/08/02 05:34:02;;;;;;;5.03;1.30;;;14.90;99.90;;;;;;5045591;28;20523;-78
2021/08/02 05:36:29;;;;;;;4.40;1.92;;;15.00;99.90;;;;;;5045933;28;20206;-79
2021/08/02 05:38:56;;;;;;;6.10;1.70;;;15.10;99.90;;;;;;5044878;28;20230;-79
2021/08/02 05:41:22;;;;;;;4.60;1.70;;;15.20;99.90;;;;;;5045688;28;20232;-78
2021/08/02 05:43:49;;;;;;;5.75;1.98;;;15.20;99.90;;;;;;5045695;28;20190;-78
2021/08/02 05:46:16;;;;;;;7.87;2.07;;;15.30;99.90;;;;;;5045085;28;20244;-79
2021/08/02 05:48:44;;;;;;;6.30;1.80;;;15.40;99.90;;;;;;5046218;28;20210;-78
2021/08/02 05:51:11;;;;;;;4.93;1.60;;;15.40;99.90;;;;;;5045553;28;20202;-80
2021/08/02 05:53:38;;;;;;;4.97;1.40;;;15.50;99.90;;;;;;5044915;28;20591;-77
2021/08/02 05:56:05;;;;;;;4.78;1.23;;;15.60;99.90;;;;;;5044905;28;20247;-79
2021/08/02 05:58:32;;;;;;;2.60;1.00;;;15.70;99.90;;;;;;5045312;28;20277;-78
2021/08/02 06:00:59;;;;;;;6.68;1.95;;;15.70;99.90;;;;;;5045651;28;20221;-78
2021/08/02 06:03:25;;;;;;;3.38;1.30;;;15.90;99.90;;;;;;5045503;28;20226;-79
2021/08/02 06:05:53;;;;;;;2.08;1.20;;;16.00;99.90;;;;;;5045492;28;20826;-77
2021/08/02 06:08:20;;;;;;;4.00;1.05;;;16.10;99.90;;;;;;5045362;28;20206;-78
2021/08/02 06:10:47;;;;;;;4.53;1.13;;;16.10;99.90;;;;;;5045780;28;20205;-77
2021/08/02 06:13:14;;;;;;;2.40;1.10;;;16.30;99.90;;;;;;5045204;28;20194;-77
2021/08/02 06:15:41;;;;;;;2.83;1.00;;;16.40;99.90;;;;;;5044925;28;20520;-78
2021/08/02 06:18:07;;;;;;;2.97;1.13;;;16.50;99.90;;;;;;5044872;28;20525;-79
2021/08/02 06:20:34;;;;;;;3.92;1.10;;;16.50;99.90;;;;;;5044649;28;20236;-77
2021/08/02 06:23:04;;;;;;;2.20;1.10;;;16.60;99.90;;;;;;5045808;28;20224;-78
2021/08/02 06:25:30;;;;;;;2.35;1.10;;;16.80;99.90;;;;;;5044858;28;20210;-78
2021/08/02 06:27:57;;;;;;;5.43;1.38;;;16.90;99.90;;;;;;5044376;28;20202;-78
2021/08/02 06:30:24;;;;;;;3.45;1.00;;;17.10;99.90;;;;;;5045243;28;20804;-78
2021/08/02 06:32:51;;;;;;;4.40;1.27;;;17.20;99.90;;;;;;5044878;28;20304;-78
2021/08/02 06:35:19;;;;;;;1.85;1.00;;;17.40;99.90;;;;;;5043927;28;20206;-77
2021/08/02 06:37:46;;;;;;;2.83;1.00;;;17.70;99.90;;;;;;5044700;28;20240;-80
2021/08/02 06:40:16;;;;;;;1.98;0.95;;;17.90;99.90;;;;;;5043807;28;20232;-79
2021/08/02 06:42:43;;;;;;;3.70;1.00;;;18.00;99.90;;;;;;5044399;28;20221;-80
2021/08/02 06:45:11;;;;;;;3.95;1.25;;;18.10;99.90;;;;;;5044851;28;20236;-79
2021/08/02 06:47:38;;;;;;;3.70;1.30;;;18.20;99.90;;;;;;5044796;28;20214;-77
2021/08/02 06:50:07;;;;;;;6.28;1.10;;;18.20;99.90;;;;;;5044140;28;20625;-77
2021/08/02 06:52:34;;;;;;;2.95;1.23;;;18.30;99.90;;;;;;5044515;28;20214;-78
2021/08/02 06:55:01;;;;;;;3.85;1.10;;;18.60;99.90;;;;;;5043667;28;20205;-77
2021/08/02 06:57:29;;;;;;;3.15;1.00;;;19.00;99.90;;;;;;5043181;28;20299;-76
2021/08/02 06:59:57;;;;;;;3.25;1.20;;;19.40;99.90;;;;;;5041998;28;20228;-77
2021/08/02 07:02:24;;;;;;;1.67;1.00;;;19.60;99.90;;;;;;5044152;28;20478;-82
2021/08/02 07:08:14;;;;;;;4.22;1.13;;;20.30;99.90;;;;;;4980429;28;20573;-79
2021/08/02 07:10:42;;;;;;;2.90;1.42;;;20.70;99.90;;;;;;5055052;28;20286;-79
2021/08/02 07:13:10;;;;;;;3.15;1.17;;;20.80;99.90;;;;;;5069191;28;20258;-79
2021/08/02 07:15:39;;;;;;;4.47;1.42;;;21.10;99.90;;;;;;5056513;28;20237;-78
2021/08/02 07:18:06;;;;;;;6.00;1.50;;;21.30;99.90;;;;;;5048886;28;20209;-78
2021/08/02 07:20:32;;;;;;;2.25;1.13;;;21.50;99.90;;;;;;5047648;28;20648;-79
2021/08/02 07:22:59;;;;;;;6.05;1.60;;;21.50;99.90;;;;;;5050697;28;20206;-83
2021/08/02 07:25:28;;;;;;;3.58;1.23;;;21.70;99.90;;;;;;5041738;28;20202;-84
2021/08/02 07:27:55;;;;;;;2.58;1.30;;;22.00;99.90;;;;;;5050356;28;20198;-80
2021/08/02 07:30:23;;;;;;;2.65;1.00;;;22.00;99.90;;;;;;5048336;28;20612;-80
2021/08/02 07:32:50;;;;;;;4.63;1.50;;;22.20;99.90;;;;;;5048467;28;20201;-79
2021/08/02 07:35:17;;;;;;;7.43;1.35;;;22.00;99.90;;;;;;5049921;28;20221;-82
2021/08/02 07:37:44;;;;;;;2.78;1.08;;;21.80;99.90;;;;;;5049171;28;20625;-81
2021/08/02 07:40:11;;;;;;;4.10;1.40;;;21.50;99.90;;;;;;5048330;28;20225;-80
2021/08/02 07:42:38;;;;;;;4.50;1.20;;;21.40;99.90;;;;;;5048081;28;20209;-80
2021/08/02 07:45:06;;;;;;;3.08;1.17;;;21.40;99.90;;;;;;5047035;28;20625;-82
2021/08/02 07:47:34;;;;;;;4.30;1.85;;;21.40;99.90;;;;;;5048537;28;20217;-80
2021/08/02 07:50:02;;;;;;;3.67;1.25;;;21.50;99.90;;;;;;5048597;28;20198;-81
2021/08/02 07:52:31;;;;;;;2.78;1.15;;;21.70;99.90;;;;;;5047933;28;20198;-80
2021/08/02 07:54:58;;;;;;;6.63;1.00;;;22.00;99.90;;;;;;5048184;28;20205;-82
2021/08/02 07:57:25;;;;;;;4.20;1.45;;;22.20;99.90;;;;;;5047277;28;20213;-78
2021/08/02 07:59:52;;;;;;;4.05;0.98;;;22.30;99.90;;;;;;5047343;28;20197;-81
2021/08/02 08:02:18;;;;;;;4.50;1.00;;;22.40;99.90;;;;;;5047655;28;20209;-80
2021/08/02 08:04:46;;;;;;;4.00;1.50;;;22.60;99.90;;;;;;5047666;28;20197;-79
2021/08/02 08:07:13;;;;;;;4.75;1.23;;;22.60;99.90;;;;;;5047134;28;20202;-81
2021/08/02 08:09:40;;;;;;;3.70;1.10;;;22.80;99.90;;;;;;5047361;28;20206;-79
2021/08/02 08:12:08;;;;;;;4.45;0.93;;;23.10;99.90;;;;;;5047790;28;20741;-81
2021/08/02 08:14:35;;;;;;;5.65;1.20;;;23.20;99.90;;;;;;5047460;28;20303;-78
2021/08/02 08:17:02;;;;;;;6.85;1.40;;;23.20;99.90;;;;;;5047640;28;20209;-80
2021/08/02 08:19:29;;;;;;;4.22;1.33;;;23.20;99.90;;;;;;5046986;28;20202;-80
2021/08/02 08:21:57;;;;;;;4.00;1.50;;;23.40;99.90;;;;;;5046959;28;20226;-79
2021/08/02 08:24:24;;;;;;;6.00;1.10;;;23.20;99.90;;;;;;5048150;28;20221;-80
2021/08/02 08:26:51;;;;;;;4.28;1.20;;;23.10;99.90;;;;;;5047633;28;20273;-78
2021/08/02 08:29:18;;;;;;;3.75;1.40;;;23.20;99.90;;;;;;5048696;28;20217;-79
2021/08/02 08:31:45;;;;;;;3.17;1.30;;;23.40;99.90;;;;;;5049045;28;20206;-80
2021/08/02 08:34:11;;;;;;;5.47;1.27;;;23.40;99.90;;;;;;5048317;28;20563;-81
2021/08/02 08:36:38;;;;;;;3.75;1.42;;;23.70;99.90;;;;;;5047818;28;20213;-79
2021/08/02 08:39:07;;;;;;;4.32;1.30;;;23.80;99.90;;;;;;5047865;28;20808;-79
2021/08/02 08:41:34;;;;;;;2.85;1.00;;;23.80;99.90;;;;;;5049908;28;20279;-81
2021/08/02 08:44:01;;;;;;;3.40;1.27;;;24.00;99.90;;;;;;5050116;28;20256;-80
2021/08/02 08:46:27;;;;;;;3.28;1.30;;;24.30;99.90;;;;;;5051210;28;20198;-82
2021/08/02 08:48:54;;;;;;;3.50;1.48;;;24.40;99.90;;;;;;5069924;28;20193;-80
2021/08/02 08:51:22;;;;;;;2.70;1.02;;;24.30;99.90;;;;;;5078289;28;20499;-82
2021/08/02 08:53:49;;;;;;;7.53;1.42;;;24.30;99.90;;;;;;5069104;28;20220;-79
2021/08/02 08:56:18;;;;;;;2.70;1.27;;;24.40;99.90;;;;;;5069745;28;20201;-81
2021/08/02 08:58:45;;;;;;;2.70;1.30;;;24.40;99.90;;;;;;5080099;28;20194;-81
2021/08/02 09:01:13;;;;;;;5.25;1.30;;;24.20;99.90;;;;;;5064337;28;20232;-81
2021/08/02 09:03:51;;;;;;;3.13;1.10;;;24.10;99.90;;;;;;5048253;28;20989;-79
2021/08/02 09:06:18;;;;;;;3.92;1.23;;;24.20;99.90;;;;;;5048693;28;20198;-80
2021/08/02 09:08:45;;;;;;;3.92;1.15;;;24.00;99.90;;;;;;5049173;28;20202;-80
2021/08/02 09:11:19;;;;;;;5.18;1.50;;;24.00;99.90;;;;;;5047448;28;20293;-79
2021/08/02 09:13:47;;;;;;;3.83;1.50;;;24.20;99.90;;;;;;5047627;28;20213;-78
2021/08/02 09:16:15;;;;;;;4.20;1.23;;;24.10;99.90;;;;;;5047121;28;20559;-81
2021/08/02 09:18:47;;;;;;;3.90;1.27;;;23.80;99.90;;;;;;5047667;28;20198;-78
2021/08/02 09:21:13;;;;;;;2.20;1.20;;;23.60;99.90;;;;;;5047275;28;20708;-84
2021/08/02 09:23:48;;;;;;;3.90;1.30;;;23.70;99.90;;;;;;5047594;28;20248;-82
2021/08/02 09:26:15;;;;;;;4.10;1.02;;;23.80;99.90;;;;;;5047677;28;20205;-80
2021/08/02 09:28:51;;;;;;;3.97;1.13;;;23.50;99.90;;;;;;5048309;28;20194;-82
2021/08/02 09:31:18;;;;;;;7.32;1.73;;;23.70;99.90;;;;;;5046095;28;20885;-82
2021/08/02 09:33:46;;;;;;;4.60;1.35;;;23.90;99.90;;;;;;5047536;28;20410;-80
2021/08/02 09:36:13;;;;;;;6.43;1.45;;;23.90;99.90;;;;;;5046879;28;20214;-80
2021/08/02 09:38:40;;;;;;;2.70;1.10;;;24.00;99.90;;;;;;5046328;28;20233;-79
2021/08/02 09:41:07;;;;;;;4.43;1.20;;;23.90;99.90;;;;;;5045688;28;20228;-78
2021/08/02 09:43:34;;;;;;;4.25;1.20;;;23.60;99.90;;;;;;5046197;28;20746;-78
2021/08/02 09:46:04;;;;;;;3.35;1.10;;;23.60;99.90;;;;;;5048946;28;20613;-82
2021/08/02 09:48:36;;;;;;;3.45;1.23;;;23.70;99.90;;;;;;5047074;28;20201;-80
2021/08/02 09:51:10;;;;;;;4.13;1.10;;;23.70;99.90;;;;;;5046973;28;20210;-81
2021/08/02 09:53:39;;;;;;;3.00;1.10;;;23.40;99.90;;;;;;5045959;28;20212;-81
2021/08/02 09:56:06;;;;;;;3.80;1.02;;;23.20;99.90;;;;;;5045849;28;20194;-77
2021/08/02 09:58:36;;;;;;;5.75;1.50;;;23.20;99.90;;;;;;5054012;28;20275;-79
2021/08/02 10:01:04;;;;;;;2.30;1.00;;;23.30;99.90;;;;;;5064925;28;20229;-77
2021/08/02 10:03:31;;;;;;;4.28;1.40;;;23.10;99.90;;;;;;5055209;28;20233;-80
2021/08/02 10:05:58;;;;;;;5.45;1.42;;;23.20;99.90;;;;;;5044062;28;20214;-78
2021/08/02 10:08:25;;;;;;;4.65;1.23;;;23.10;99.90;;;;;;5044705;28;20206;-78
2021/08/02 10:10:52;;;;;;;3.65;1.45;;;23.20;99.90;;;;;;5044004;28;20213;-80
2021/08/02 10:13:23;;;;;;;5.10;1.33;;;23.40;99.90;;;;;;5049750;28;20209;-80
2021/08/02 10:15:52;;;;;;;3.88;1.27;;;23.60;99.90;;;;;;5065106;28;20667;-77
2021/08/02 10:18:22;;;;;;;5.30;1.40;;;23.70;99.90;;;;;;5048244;28;20704;-80
2021/08/02 10:20:49;;;;;;;5.55;1.42;;;23.90;99.90;;;;;;5044591;28;20702;-80
2021/08/02 10:23:24;;;;;;;3.75;1.15;;;24.00;99.90;;;;;;5058763;28;20220;-81
2021/08/02 10:25:51;;;;;;;3.58;1.45;;;24.10;99.90;;;;;;5057628;28;20197;-81
2021/08/02 10:28:20;;;;;;;4.40;1.40;;;24.10;99.90;;;;;;5044844;28;20210;-77
2021/08/02 10:30:48;;;;;;;3.60;1.60;;;23.90;99.90;;;;;;5044771;28;20206;-77
2021/08/02 10:33:15;;;;;;;6.28;1.42;;;24.00;99.90;;;;;;5043884;28;20293;-77
2021/08/02 10:35:46;;;;;;;3.63;1.35;;;23.80;99.90;;;;;;5044114;28;20224;-77
2021/08/02 10:38:15;;;;;;;4.45;1.67;;;23.50;99.90;;;;;;5043386;28;20233;-85
2021/08/02 10:40:53;;;;;;;4.70;1.33;;;23.50;99.90;;;;;;5044252;28;20213;-79
2021/08/02 10:43:32;;;;;;;4.30;1.00;;;23.60;99.90;;;;;;5044199;28;20198;-82
2021/08/02 10:46:01;;;;;;;2.60;1.33;;;23.80;99.90;;;;;;5045045;28;20202;-78
2021/08/02 10:48:29;;;;;;;6.82;1.45;;;23.90;99.90;;;;;;5044265;28;20872;-79
2021/08/02 10:51:10;;;;;;;4.82;1.30;;;23.90;99.90;;;;;;5043719;28;20205;-79
2021/08/02 10:53:37;;;;;;;3.58;1.40;;;23.60;99.90;;;;;;5044729;28;20201;-76
2021/08/02 10:56:04;;;;;;;3.65;1.15;;;23.60;99.90;;;;;;5043659;28;20216;-80
2021/08/02 10:58:34;;;;;;;4.40;1.10;;;23.70;99.90;;;;;;5045973;28;20197;-78
2021/08/02 11:01:02;;;;;;;3.65;1.45;;;23.60;99.90;;;;;;5052608;28;20392;-81
2021/08/02 11:03:34;;;;;;;3.38;1.10;;;23.80;99.90;;;;;;5047166;28;20228;-81
2021/08/02 11:06:11;;;;;;;4.55;1.23;;;23.60;99.90;;;;;;5065440;28;20208;-79
2021/08/02 11:08:49;;;;;;;7.32;1.35;;;23.70;99.90;;;;;;5067530;28;20212;-82
2021/08/02 11:11:24;;;;;;;5.78;1.17;;;23.60;99.90;;;;;;5067314;28;20301;-82
2021/08/02 11:13:53;;;;;;;4.07;1.23;;;23.60;99.90;;;;;;5051028;28;20797;-77
2021/08/02 11:16:20;;;;;;;3.22;1.23;;;23.80;99.90;;;;;;5043157;28;20214;-80
2021/08/02 11:18:48;;;;;;;3.83;1.10;;;23.90;99.90;;;;;;5043674;28;20593;-78
2021/08/02 11:21:24;;;;;;;2.47;1.05;;;23.90;99.90;;;;;;5043564;28;20206;-79
2021/08/02 11:23:51;;;;;;;4.05;1.20;;;24.00;99.90;;;;;;5044082;28;20197;-80
2021/08/02 11:26:20;;;;;;;2.70;1.20;;;23.80;99.90;;;;;;5044191;28;20202;-80
2021/08/02 11:28:48;;;;;;;2.55;1.15;;;23.80;99.90;;;;;;5043566;28;20230;-78
2021/08/02 11:31:16;;;;;;;3.20;1.10;;;23.80;99.90;;;;;;5042408;28;20202;-80
2021/08/02 11:33:44;;;;;;;3.28;1.15;;;23.80;99.90;;;;;;5044719;28;20605;-80
2021/08/02 11:36:17;;;;;;;6.68;1.55;;;23.50;99.90;;;;;;5050538;28;20216;-78
2021/08/02 11:38:46;;;;;;;3.88;1.10;;;23.10;99.90;;;;;;5064047;28;20318;-79
2021/08/02 11:41:24;;;;;;;3.08;1.02;;;23.10;99.90;;;;;;5063633;28;20198;-79
2021/08/02 11:43:51;;;;;;;1.90;0.90;;;23.20;99.90;;;;;;5064577;28;20228;-82
2021/08/02 11:46:18;;;;;;;3.00;1.00;;;23.50;99.90;;;;;;5043959;28;20668;-82
2021/08/02 11:48:46;;;;;;;2.28;1.10;;;23.80;99.90;;;;;;5044877;28;20213;-81
2021/08/02 11:51:13;;;;;;;3.60;1.08;;;23.90;99.90;;;;;;5043447;28;20202;-80
2021/08/02 11:53:40;;;;;;;5.70;1.35;;;23.90;99.90;;;;;;5045516;28;20198;-78
2021/08/02 11:56:09;;;;;;;4.63;0.93;;;24.00;99.90;;;;;;5066819;28;20608;-80
2021/08/02 11:58:45;;;;;;;5.80;1.30;;;24.10;99.90;;;;;;5067458;28;20217;-82
2021/08/02 12:01:13;;;;;;;2.28;1.20;;;24.00;99.90;;;;;;5049587;28;20205;-81
2021/08/02 12:03:44;;;;;;;2.65;1.17;;;23.90;99.90;;;;;;5047553;28;20232;-79
2021/08/02 12:06:11;;;;;;;4.35;1.00;;;24.00;99.90;;;;;;5047471;28;20225;-78
2021/08/02 12:08:51;;;;;;;3.72;0.93;;;23.80;99.90;;;;;;5047318;28;20209;-81
2021/08/02 12:11:20;;;;;;;1.70;1.02;;;24.00;99.90;;;;;;5046696;28;20201;-78
2021/08/02 12:13:50;;;;;;;3.53;1.10;;;23.90;99.90;;;;;;5046621;28;20201;-80
2021/08/02 12:16:29;;;;;;;3.47;0.95;;;23.80;99.90;;;;;;5055132;28;20209;-78
2021/08/02 12:19:04;;;;;;;2.03;0.93;;;23.80;99.90;;;;;;5080863;28;20189;-78
2021/08/02 12:21:32;;;;;;;2.88;0.95;;;23.50;99.90;;;;;;5064136;28;20232;-78
2021/08/02 12:24:09;;;;;;;5.18;1.52;;;23.40;99.90;;;;;;5050232;28;20206;-80
2021/08/02 12:26:47;;;;;;;3.40;1.13;;;23.20;99.90;;;;;;5050104;28;20202;-84
2021/08/02 12:29:21;;;;;;;3.53;1.20;;;23.10;99.90;;;;;;5047932;28;20186;-83
2021/08/02 12:31:55;;;;;;;3.13;1.30;;;23.10;99.90;;;;;;5064305;28;20270;-80
2021/08/02 12:34:21;;;;;;;3.15;1.15;;;22.90;99.90;;;;;;5065468;28;20243;-78
2021/08/02 12:36:48;;;;;;;4.05;1.27;;;23.20;99.90;;;;;;5066112;28;20209;-80
2021/08/02 12:39:15;;;;;;;3.35;1.10;;;23.20;99.90;;;;;;5065033;28;20394;-77
2021/08/02 12:41:43;;;;;;;3.28;1.33;;;23.10;99.90;;;;;;5066006;28;20225;-79
2021/08/02 12:44:10;;;;;;;2.15;0.85;;;23.00;99.90;;;;;;5066709;28;20212;-80
2021/08/02 12:46:37;;;;;;;3.47;1.30;;;22.90;99.90;;;;;;5060019;28;20611;-80
2021/08/02 12:49:04;;;;;;;4.45;1.35;;;22.90;99.90;;;;;;5046356;28;20213;-83
2021/08/02 12:51:30;;;;;;;2.85;1.27;;;22.80;99.90;;;;;;5046925;28;20206;-80
2021/08/02 12:53:57;;;;;;;2.97;1.20;;;22.80;99.90;;;;;;5046377;28;20206;-78
2021/08/02 12:56:24;;;;;;;6.75;1.17;;;22.80;99.90;;;;;;5046098;28;20213;-79
2021/08/02 12:58:52;;;;;;;4.43;0.93;;;22.60;99.90;;;;;;5047288;28;20224;-80
2021/08/02 13:01:19;;;;;;;4.80;1.30;;;22.20;99.90;;;;;;5047088;28;20218;-80